Time;durP1;ratioP1;P1;durP2;ratioP2;P2;SDS_P1;SDS_P2;PMS_P1;PMS_P2;Temp;Humidity;BMP_temperature;BMP_pressure;BME280_temperature;BME280_humidity;BME280_pressure;Samples;Min_cycle;Max_cycle;Signal;HPM_P1;HPM_P2
2021/04/05 00:01:56;;;;;;;14.47;8.07;;;;;;;2.83;54.11;99471.17;115429;1196;103105;-77
2021/04/05 00:04:26;;;;;;;15.80;8.70;;;;;;;2.82;53.68;99469.47;115548;1196;103060;-79
2021/04/05 00:06:53;;;;;;;13.33;7.87;;;;;;;2.82;54.25;99469.47;115319;1197;103019;-78
2021/04/05 00:09:20;;;;;;;17.85;9.10;;;;;;;2.82;54.26;99459.16;115333;1199;103019;-78
2021/04/05 00:11:48;;;;;;;16.03;8.85;;;;;;;2.80;54.33;99450.61;115344;1196;103040;-78
2021/04/05 00:14:16;;;;;;;13.87;8.50;;;;;;;2.79;54.21;99448.91;115340;1199;103097;-78
2021/04/05 00:16:43;;;;;;;15.80;8.60;;;;;;;2.78;54.30;99439.48;115283;1199;103624;-80
2021/04/05 00:19:12;;;;;;;16.55;9.80;;;;;;;2.78;53.91;99426.61;115533;1200;104052;-78
2021/04/05 00:21:39;;;;;;;14.27;8.80;;;;;;;2.79;54.11;99423.16;115589;1198;103497;-78
2021/04/05 00:24:07;;;;;;;16.37;9.13;;;;;;;2.78;54.72;99429.19;115336;1200;103054;-78
2021/04/05 00:26:34;;;;;;;15.68;9.38;;;;;;;2.77;54.78;99419.76;115338;1199;103055;-78
2021/04/05 00:29:01;;;;;;;15.55;9.15;;;;;;;2.77;54.73;99422.33;115556;1196;102979;-78
2021/04/05 00:31:28;;;;;;;13.17;8.13;;;;;;;2.76;54.94;99412.05;115581;1198;102979;-78
2021/04/05 00:33:55;;;;;;;15.70;9.45;;;;;;;2.75;54.58;99411.20;115353;1196;103245;-78
2021/04/05 00:36:22;;;;;;;15.60;8.80;;;;;;;2.74;54.94;99414.66;115569;1200;103031;-78
2021/04/05 00:38:49;;;;;;;18.20;10.60;;;;;;;2.75;55.23;99400.06;115382;1197;103085;-78
2021/04/05 00:41:17;;;;;;;16.97;9.70;;;;;;;2.75;54.26;99400.91;115294;1196;103076;-78
2021/04/05 00:43:46;;;;;;;16.00;9.20;;;;;;;2.75;53.97;99400.91;115564;1196;102970;-77
2021/04/05 00:46:21;;;;;;;14.70;9.05;;;;;;;2.77;54.50;99400.88;115655;1196;103001;-79
2021/04/05 00:48:49;;;;;;;17.17;9.20;;;;;;;2.76;54.72;99404.33;115591;1197;102000;-78
2021/04/05 00:51:23;;;;;;;16.20;9.50;;;;;;;2.76;54.78;99382.01;115390;1196;102845;-78
2021/04/05 00:53:51;;;;;;;14.53;9.33;;;;;;;2.75;54.67;99366.59;115295;1196;102880;-77
2021/04/05 00:56:22;;;;;;;17.20;10.47;;;;;;;2.75;54.37;99374.31;115579;1196;103227;-77
2021/04/05 00:58:50;;;;;;;15.57;9.87;;;;;;;2.75;54.47;99370.01;115415;1199;103008;-78
2021/04/05 01:01:25;;;;;;;16.73;9.80;;;;;;;2.73;54.53;99356.31;115337;1198;101987;-78
2021/04/05 01:03:53;;;;;;;19.83;10.03;;;;;;;2.72;54.23;99359.76;115437;1199;103143;-78
2021/04/05 01:06:26;;;;;;;14.63;9.30;;;;;;;2.74;54.36;99350.28;115443;1197;102996;-78
2021/04/05 01:08:55;;;;;;;14.45;8.65;;;;;;;2.73;54.49;99340.86;115327;1199;103111;-78
2021/04/05 01:11:26;;;;;;;15.23;8.87;;;;;;;2.73;54.45;99338.28;115560;1200;103034;-78
2021/04/05 01:13:54;;;;;;;15.67;9.50;;;;;;;2.71;54.53;99332.31;115288;1197;103170;-78
2021/04/05 01:16:26;;;;;;;16.67;10.43;;;;;;;2.71;54.60;99322.02;115307;1199;102966;-78
2021/04/05 01:18:54;;;;;;;18.30;10.30;;;;;;;2.69;54.42;99322.04;115326;1196;103152;-78
2021/04/05 01:21:22;;;;;;;15.57;8.90;;;;;;;2.71;54.79;99314.29;115321;1198;103695;-78
2021/04/05 01:23:49;;;;;;;16.77;9.90;;;;;;;2.69;54.75;99310.86;115349;1199;103158;-78
2021/04/05 01:26:17;;;;;;;14.50;9.03;;;;;;;2.67;54.64;99304.89;115297;1196;103097;-78
2021/04/05 01:28:44;;;;;;;14.77;9.00;;;;;;;2.66;54.31;99309.19;115581;1200;103188;-78
2021/04/05 01:31:11;;;;;;;17.60;9.70;;;;;;;2.66;54.69;99295.47;115281;1196;101902;-78
2021/04/05 01:33:41;;;;;;;17.57;9.57;;;;;;;2.66;54.88;99292.89;115280;1200;103143;-78
2021/04/05 01:36:12;;;;;;;17.00;9.10;;;;;;;2.63;54.74;99280.92;115315;1196;103037;-78
2021/04/05 01:38:42;;;;;;;17.95;10.00;;;;;;;2.61;54.66;99274.95;115339;1196;103203;-78
2021/04/05 01:41:13;;;;;;;17.35;10.40;;;;;;;2.59;54.87;99268.13;115568;1197;103137;-77
2021/04/05 01:43:40;;;;;;;18.47;10.50;;;;;;;2.58;54.73;99284.45;115463;1199;103088;-78
2021/04/05 01:46:14;;;;;;;18.17;11.17;;;;;;;2.56;54.92;99265.61;115353;1196;103028;-77
2021/04/05 01:48:42;;;;;;;15.83;9.23;;;;;;;2.56;54.83;99268.19;115616;1200;103012;-77
2021/04/05 01:51:22;;;;;;;16.30;9.37;;;;;;;2.55;54.83;99269.06;115338;1196;103196;-77
2021/04/05 01:53:50;;;;;;;15.73;9.53;;;;;;;2.53;54.86;99268.23;115343;1196;103142;-78
2021/04/05 01:56:19;;;;;;;15.50;9.97;;;;;;;2.49;55.69;99269.98;115372;1196;102823;-78
2021/04/05 01:58:49;;;;;;;16.60;9.33;;;;;;;2.48;55.58;99262.28;115290;1198;103463;-78
2021/04/05 02:01:20;;;;;;;18.23;10.57;;;;;;;2.46;55.38;99246.02;115374;1199;102973;-77
2021/04/05 02:03:48;;;;;;;17.97;10.73;;;;;;;2.43;55.48;99245.20;115333;1198;103088;-78
2021/04/05 02:06:27;;;;;;;17.13;10.60;;;;;;;2.41;55.63;99239.23;115346;1200;102992;-77
2021/04/05 02:08:55;;;;;;;16.30;10.20;;;;;;;2.41;55.37;99240.95;115347;1199;103063;-78
2021/04/05 02:11:29;;;;;;;16.23;9.67;;;;;;;2.39;55.93;99238.41;115394;1200;103069;-77
2021/04/05 02:13:58;;;;;;;18.67;10.90;;;;;;;2.37;55.12;99235.01;115292;1199;103114;-78
2021/04/05 02:16:26;;;;;;;19.50;10.80;;;;;;;2.36;55.64;99233.31;115378;1199;103098;-77
2021/04/05 02:18:57;;;;;;;19.55;11.10;;;;;;;2.33;55.50;99238.48;115577;1200;101934;-78
2021/04/05 02:21:26;;;;;;;16.87;10.87;;;;;;;2.32;56.15;99230.78;115351;1200;103079;-78
2021/04/05 02:23:56;;;;;;;22.03;10.87;;;;;;;2.27;56.58;99228.28;115309;1198;103047;-78
2021/04/05 02:26:25;;;;;;;18.00;11.10;;;;;;;2.21;56.03;99215.52;115583;1198;103111;-77
2021/04/05 02:28:55;;;;;;;19.00;11.80;;;;;;;2.15;56.42;99210.45;115357;1199;103063;-78
2021/04/05 02:31:24;;;;;;;18.70;11.33;;;;;;;2.10;56.21;99217.39;115444;1199;103056;-78
2021/04/05 02:33:53;;;;;;;19.80;11.80;;;;;;;2.04;56.25;99212.34;115586;1199;103273;-78
2021/04/05 02:36:24;;;;;;;18.00;11.35;;;;;;;2.01;56.79;99212.39;115580;1196;103147;-78
2021/04/05 02:38:58;;;;;;;19.30;11.17;;;;;;;1.96;56.48;99201.30;115285;1199;103213;-77
2021/04/05 02:41:29;;;;;;;19.43;12.07;;;;;;;1.90;56.61;99202.25;115298;1200;103436;-77
2021/04/05 02:43:58;;;;;;;19.17;11.67;;;;;;;1.86;56.96;99189.46;115549;1196;103216;-78
2021/04/05 02:46:34;;;;;;;21.55;12.50;;;;;;;1.83;57.44;99192.08;115642;1196;103002;-78
2021/04/05 02:49:04;;;;;;;21.17;11.03;;;;;;;1.77;58.55;99186.13;115341;1198;103069;-78
2021/04/05 02:51:31;;;;;;;22.00;12.77;;;;;;;1.73;57.97;99174.20;115399;1199;102973;-78
2021/04/05 02:54:00;;;;;;;19.37;11.03;;;;;;;1.71;57.66;99173.38;115390;1200;102223;-77
2021/04/05 02:56:29;;;;;;;21.07;11.90;;;;;;;1.66;57.62;99161.46;115586;1198;103052;-78
2021/04/05 02:58:57;;;;;;;21.10;12.07;;;;;;;1.61;58.24;99158.93;115361;1199;103175;-78
2021/04/05 03:01:27;;;;;;;21.67;12.07;;;;;;;1.56;58.11;99165.01;115384;1199;103447;-79
2021/04/05 03:03:56;;;;;;;20.87;13.20;;;;;;;1.52;58.80;99156.50;115402;1200;103102;-79
2021/04/05 03:06:25;;;;;;;21.47;12.00;;;;;;;1.49;58.32;99151.41;115429;1198;103040;-79
2021/04/05 03:08:53;;;;;;;22.90;12.43;;;;;;;1.45;58.97;99147.19;115357;1198;103222;-78
2021/04/05 03:11:21;;;;;;;26.03;13.13;;;;;;;1.43;58.59;99146.33;115385;1199;103098;-78
2021/04/05 03:13:50;;;;;;;21.30;11.77;;;;;;;1.40;58.96;99138.66;115311;1199;102982;-78
2021/04/05 03:16:20;;;;;;;22.00;12.55;;;;;;;1.37;58.99;99120.72;115345;1196;103001;-79
2021/04/05 03:18:48;;;;;;;19.97;12.23;;;;;;;1.35;59.46;99132.74;115531;1196;103008;-78
2021/04/05 03:21:19;;;;;;;22.20;13.27;;;;;;;1.34;59.13;99113.06;115332;1196;103449;-77
2021/04/05 03:23:47;;;;;;;22.13;13.47;;;;;;;1.33;60.01;99101.94;115336;1197;103525;-77
2021/04/05 03:26:14;;;;;;;20.17;12.93;;;;;;;1.33;60.04;99099.37;115366;1199;104636;-77
2021/04/05 03:28:41;;;;;;;23.60;13.53;;;;;;;1.33;59.53;99086.53;115609;1196;102983;-77
2021/04/05 03:31:19;;;;;;;24.53;13.77;;;;;;;1.30;59.99;99085.72;115352;1199;103121;-78
2021/04/05 03:33:52;;;;;;;24.45;13.18;;;;;;;1.28;59.67;99088.31;115298;1199;102851;-77
2021/04/05 03:36:21;;;;;;;23.60;13.90;;;;;;;1.27;60.35;99084.05;115292;1199;103027;-79
2021/04/05 03:38:49;;;;;;;24.00;13.63;;;;;;;1.27;60.55;99078.06;115375;1199;103027;-77
2021/04/05 03:41:51;;;;;;;22.60;13.10;;;;;;;1.26;60.42;99063.49;115368;1199;103107;-78
2021/04/05 03:44:31;;;;;;;27.73;14.03;;;;;;;1.24;60.21;99060.09;115366;1200;102093;-78
2021/04/05 03:47:52;;;;;;;20.47;13.37;;;;;;;1.24;60.50;99054.97;115289;1199;103015;-78
2021/04/05 03:50:42;;;;;;;22.27;12.40;;;;;;;1.21;60.44;99054.14;115199;1202;103064;-77
2021/04/05 03:53:19;;;;;;;23.50;14.30;;;;;;;1.23;60.48;99041.27;114932;1203;103091;-78
2021/04/05 03:55:53;;;;;;;24.80;13.60;;;;;;;1.23;61.16;99027.58;114944;1203;103136;-78
2021/04/05 03:58:22;;;;;;;21.80;13.45;;;;;;;1.24;60.81;99019.00;114930;1203;103099;-78
2021/04/05 04:00:50;;;;;;;23.17;13.53;;;;;;;1.23;61.15;99019.88;115070;1203;101502;-78
2021/04/05 04:03:28;;;;;;;24.20;13.55;;;;;;;1.21;60.68;99000.20;114869;1206;103292;-77
2021/04/05 04:05:59;;;;;;;23.60;13.00;;;;;;;1.22;61.57;98985.64;114840;1203;103296;-78
2021/04/05 04:08:34;;;;;;;24.03;12.87;;;;;;;1.24;61.35;98998.46;114948;1203;103169;-77
2021/04/05 04:11:09;;;;;;;28.57;13.80;;;;;;;1.24;61.36;98994.17;114903;1205;103056;-77
2021/04/05 04:13:42;;;;;;;23.40;14.57;;;;;;;1.27;60.85;98985.60;114825;1205;103219;-77
2021/04/05 04:16:12;;;;;;;25.80;14.60;;;;;;;1.32;61.26;98991.51;114900;1203;103063;-77
2021/04/05 04:18:40;;;;;;;21.00;13.60;;;;;;;1.36;61.31;98993.16;114880;1205;103028;-79
2021/04/05 04:21:12;;;;;;;20.93;13.30;;;;;;;1.43;60.66;98985.31;114908;1205;103008;-77
2021/04/05 04:23:40;;;;;;;26.13;14.53;;;;;;;1.60;60.57;98991.91;114894;1203;103229;-79
2021/04/05 04:26:08;;;;;;;25.53;15.90;;;;;;;1.77;60.33;98979.63;115014;1203;103427;-78
2021/04/05 04:28:36;;;;;;;23.90;15.00;;;;;;;2.01;59.82;98965.52;115025;1201;103033;-77
2021/04/05 04:31:04;;;;;;;26.07;15.43;;;;;;;2.27;59.29;98970.17;115223;1198;103005;-77
2021/04/05 04:33:32;;;;;;;27.17;14.40;;;;;;;2.51;58.93;98953.39;115483;1196;103015;-78
2021/04/05 04:36:00;;;;;;;25.90;14.97;;;;;;;2.78;58.55;98945.11;115598;1197;103037;-77
2021/04/05 04:38:28;;;;;;;27.37;15.03;;;;;;;3.11;57.60;98924.64;115335;1199;103040;-78
2021/04/05 04:40:55;;;;;;;23.57;14.07;;;;;;;3.37;56.56;98924.02;115551;1199;103012;-78
2021/04/05 04:43:23;;;;;;;27.90;15.50;;;;;;;3.68;55.94;98903.48;115314;1199;103069;-78
2021/04/05 04:45:50;;;;;;;23.63;14.53;;;;;;;4.05;54.91;98888.73;115283;1200;103008;-77
2021/04/05 04:48:17;;;;;;;26.07;14.13;;;;;;;4.54;54.77;98889.92;115324;1200;102822;-78
2021/04/05 04:50:45;;;;;;;25.90;14.00;;;;;;;5.02;52.99;98907.40;115403;1198;103066;-77
2021/04/05 04:53:12;;;;;;;27.50;14.43;;;;;;;5.42;51.52;98900.09;115324;1197;103021;-77
2021/04/05 04:55:40;;;;;;;25.50;14.20;;;;;;;5.88;51.11;98879.58;115359;1198;103088;-78
2021/04/05 04:58:08;;;;;;;25.73;15.03;;;;;;;6.30;49.56;98882.42;115372;1196;103475;-78
2021/04/05 05:00:38;;;;;;;24.77;14.37;;;;;;;6.66;49.04;98899.20;115567;1196;103052;-78
2021/04/05 05:03:06;;;;;;;20.33;12.93;;;;;;;7.21;48.06;98884.09;115263;1199;103044;-78
2021/04/05 05:05:36;;;;;;;20.17;12.90;;;;;;;7.59;46.29;98858.32;115350;1199;102986;-78
2021/04/05 05:08:05;;;;;;;26.30;14.23;;;;;;;7.94;46.09;98863.77;115295;1198;103100;-77
2021/04/05 05:10:32;;;;;;;22.87;13.37;;;;;;;8.33;44.83;98848.16;115345;1199;103072;-77
2021/04/05 05:13:00;;;;;;;23.20;13.23;;;;;;;8.71;44.00;98854.23;115314;1198;103475;-77
2021/04/05 05:15:30;;;;;;;25.47;14.03;;;;;;;9.09;43.06;98839.41;115297;1200;103589;-78
2021/04/05 05:17:58;;;;;;;22.77;13.30;;;;;;;9.68;43.15;98844.23;115369;1198;103083;-77
2021/04/05 05:20:26;;;;;;;21.67;12.40;;;;;;;9.90;41.30;98837.95;115383;1199;103101;-78
2021/04/05 05:23:00;;;;;;;21.90;13.87;;;;;;;10.12;40.89;98841.12;115661;1196;103998;-78
2021/04/05 05:25:30;;;;;;;20.93;13.33;;;;;;;10.28;40.80;98836.81;115329;1196;103008;-78
2021/04/05 05:28:02;;;;;;;20.23;13.20;;;;;;;10.58;39.90;98843.89;115277;1196;103197;-78
2021/04/05 05:30:30;;;;;;;18.33;12.27;;;;;;;11.01;39.43;98841.53;115334;1200;103031;-78
2021/04/05 05:33:03;;;;;;;24.63;15.27;;;;;;;11.49;39.48;98838.73;115354;1199;103104;-77
2021/04/05 05:35:32;;;;;;;24.37;14.13;;;;;;;12.02;37.91;98841.72;115347;1199;103229;-78
2021/04/05 05:38:05;;;;;;;21.43;13.50;;;;;;;12.18;36.98;98832.02;115328;1199;103050;-77
2021/04/05 05:40:34;;;;;;;19.53;13.20;;;;;;;12.32;36.10;98823.34;115285;1196;103442;-78
2021/04/05 05:43:09;;;;;;;20.80;13.73;;;;;;;12.37;35.51;98816.88;115363;1196;103121;-77
2021/04/05 05:45:57;;;;;;;19.97;13.40;;;;;;;12.54;35.19;98830.69;115588;1196;102851;-78
2021/04/05 05:48:24;;;;;;;20.80;13.37;;;;;;;12.83;34.59;98813.99;115310;1196;103002;-78
2021/04/05 05:51:24;;;;;;;19.03;13.30;;;;;;;13.44;35.43;98804.77;115518;1199;103116;-78
2021/04/05 05:54:00;;;;;;;18.50;12.47;;;;;;;14.04;34.69;98803.35;115544;1196;103094;-78
2021/04/05 05:56:42;;;;;;;19.25;11.60;;;;;;;14.24;31.36;98789.69;115588;1200;102973;-78
2021/04/05 05:59:26;;;;;;;15.83;11.60;;;;;;;14.19;32.05;98776.07;115299;1199;103188;-79
2021/04/05 06:01:57;;;;;;;17.07;11.57;;;;;;;14.44;32.42;98765.54;115274;1198;103133;-78
2021/04/05 06:04:38;;;;;;;19.83;12.50;;;;;;;14.68;30.74;98764.72;115312;1199;103076;-78
2021/04/05 06:07:30;;;;;;;18.93;11.93;;;;;;;14.83;32.04;98770.64;115449;1199;103027;-78
2021/04/05 06:10:24;;;;;;;16.80;11.57;;;;;;;15.11;31.19;98763.27;115555;1197;103439;-79
2021/04/05 06:13:08;;;;;;;19.00;11.83;;;;;;;15.44;30.57;98745.93;115287;1199;103076;-79
2021/04/05 06:15:50;;;;;;;20.37;11.37;;;;;;;15.99;29.58;98744.34;115325;1198;102979;-78
2021/04/05 06:18:26;;;;;;;16.43;10.53;;;;;;;16.36;29.84;98746.70;115332;1199;103120;-78
2021/04/05 06:21:06;;;;;;;16.97;10.93;;;;;;;17.03;28.61;98741.24;115331;1199;102999;-78
2021/04/05 06:23:41;;;;;;;18.70;11.40;;;;;;;17.36;26.12;98775.34;115315;1199;103014;-79
2021/04/05 06:26:19;;;;;;;17.23;10.83;;;;;;;17.52;27.32;98730.92;115333;1199;103073;-78
2021/04/05 06:28:57;;;;;;;15.67;10.67;;;;;;;17.86;27.21;98733.34;115559;1199;103018;-78
2021/04/05 06:31:28;;;;;;;18.13;11.50;;;;;;;17.87;25.90;98732.38;115499;1199;103204;-78
2021/04/05 06:33:59;;;;;;;14.50;10.10;;;;;;;17.42;25.99;98751.13;115524;1196;103095;-78
2021/04/05 06:36:48;;;;;;;18.47;11.90;;;;;;;17.07;27.50;98718.98;115364;1199;103005;-78
2021/04/05 06:39:24;;;;;;;16.93;10.37;;;;;;;17.83;27.63;98711.69;115287;1198;103011;-78
2021/04/05 06:42:17;;;;;;;16.47;10.43;;;;;;;18.07;26.80;98705.10;115288;1200;103103;-78
2021/04/05 06:45:15;;;;;;;16.33;10.63;;;;;;;18.61;26.97;98698.55;115321;1196;102334;-79
2021/04/05 06:48:19;;;;;;;16.10;10.77;;;;;;;18.67;25.66;98703.33;115578;1196;103490;-79
2021/04/05 06:50:59;;;;;;;16.33;10.57;;;;;;;18.66;25.20;98690.23;115601;1200;103479;-77
2021/04/05 06:53:57;;;;;;;18.37;10.90;;;;;;;18.93;25.71;98676.34;115340;1197;103008;-79
2021/04/05 06:56:33;;;;;;;14.33;9.63;;;;;;;19.61;25.84;98669.15;115525;1197;103015;-80
2021/04/05 06:59:23;;;;;;;15.40;9.88;;;;;;;20.27;24.90;98670.76;115333;1199;102967;-78
2021/04/05 07:02:28;;;;;;;14.20;8.93;;;;;;;20.56;23.90;98652.90;115384;1199;103105;-78
2021/04/05 07:05:18;;;;;;;14.17;9.03;;;;;;;20.83;24.56;98654.64;115427;1200;103063;-79
2021/04/05 07:08:04;;;;;;;16.50;9.13;;;;;;;20.69;23.49;98634.81;115312;1199;101354;-78
2021/04/05 07:10:44;;;;;;;16.47;9.70;;;;;;;20.76;23.58;98627.08;115338;1199;104652;-79
2021/04/05 07:13:33;;;;;;;14.53;8.80;;;;;;;20.79;24.46;98626.77;115265;1199;102213;-78
2021/04/05 07:16:10;;;;;;;13.00;8.33;;;;;;;21.82;24.73;98619.80;115291;1196;102986;-79
2021/04/05 07:18:51;;;;;;;18.45;8.60;;;;;;;22.74;23.53;98611.70;115577;1198;103518;-79
2021/04/05 07:21:56;;;;;;;13.73;8.43;;;;;;;23.00;21.25;98618.72;115369;1198;103011;-79
2021/04/05 07:24:35;;;;;;;13.00;8.17;;;;;;;22.65;22.37;98612.71;115337;1199;102979;-79
2021/04/05 07:27:13;;;;;;;12.47;8.37;;;;;;;22.58;22.17;98624.98;115346;1199;103702;-79
2021/04/05 07:29:54;;;;;;;12.23;8.23;;;;;;;21.87;21.58;98606.87;115348;1196;103088;-78
2021/04/05 07:32:56;;;;;;;15.20;8.83;;;;;;;21.50;21.63;98600.08;115355;1199;103012;-79
2021/04/05 07:35:31;;;;;;;16.23;8.50;;;;;;;21.24;21.98;98593.95;115603;1196;102877;-79
2021/04/05 07:38:06;;;;;;;14.33;9.57;;;;;;;20.79;22.19;98594.97;115350;1196;103032;-79
2021/04/05 07:41:19;;;;;;;12.80;8.00;;;;;;;20.36;21.98;98587.80;115333;1196;103091;-79
2021/04/05 07:43:49;;;;;;;10.90;8.33;;;;;;;20.53;22.61;98567.63;115576;1196;102961;-79
2021/04/05 07:46:38;;;;;;;14.33;9.23;;;;;;;20.19;21.82;98570.92;115595;1199;103002;-79
2021/04/05 07:49:33;;;;;;;15.27;8.40;;;;;;;19.43;22.63;98573.02;115572;1196;103044;-79
2021/04/05 07:52:20;;;;;;;11.23;7.87;;;;;;;19.03;22.53;98558.29;115380;1196;102986;-78
2021/04/05 07:54:49;;;;;;;13.43;7.58;;;;;;;18.76;23.29;98553.75;115334;1199;103171;-78
2021/04/05 07:57:43;;;;;;;14.13;8.27;;;;;;;18.76;23.47;98537.08;115533;1197;103015;-78
2021/04/05 08:00:33;;;;;;;11.67;7.63;;;;;;;19.31;23.58;98533.55;115357;1199;102999;-78
2021/04/05 08:03:08;;;;;;;10.30;7.17;;;;;;;19.69;22.24;98537.00;115336;1198;102964;-78
2021/04/05 08:05:44;;;;;;;10.97;6.77;;;;;;;19.81;22.97;98521.76;115590;1198;103024;-78
2021/04/05 08:08:20;;;;;;;13.63;7.07;;;;;;;20.18;21.77;98537.50;115638;1197;104638;-79
2021/04/05 08:11:07;;;;;;;7.80;5.95;;;;;;;19.56;21.34;98524.12;115484;1196;103509;-78
2021/04/05 08:14:03;;;;;;;10.97;6.13;;;;;;;19.09;22.42;98533.09;115543;1196;102999;-79
2021/04/05 08:16:44;;;;;;;9.93;6.00;;;;;;;19.58;22.34;98519.54;115614;1196;103072;-79
2021/04/05 08:19:27;;;;;;;9.70;6.10;;;;;;;19.63;22.56;98500.58;115342;1197;103273;-79
2021/04/05 08:22:17;;;;;;;13.30;6.70;;;;;;;19.12;21.78;98495.80;115407;1197;104091;-79
2021/04/05 08:24:47;;;;;;;7.97;5.37;;;;;;;18.87;22.97;98502.58;115430;1199;103156;-79
2021/04/05 08:27:46;;;;;;;9.37;6.13;;;;;;;19.54;22.71;98512.02;115453;1199;103181;-78
2021/04/05 08:30:23;;;;;;;9.37;5.80;;;;;;;19.98;22.53;98502.42;115360;1196;103095;-78
2021/04/05 08:33:28;;;;;;;11.50;5.70;;;;;;;20.13;22.11;98485.02;115526;1196;103057;-79
2021/04/05 08:36:10;;;;;;;10.70;6.23;;;;;;;19.19;22.15;98489.77;115365;1196;103075;-78
2021/04/05 08:39:06;;;;;;;10.90;6.37;;;;;;;17.62;22.94;98477.07;115347;1199;103050;-79
2021/04/05 08:42:09;;;;;;;9.67;6.13;;;;;;;16.53;24.20;98475.95;115442;1198;103494;-78
2021/04/05 08:44:44;;;;;;;10.03;6.60;;;;;;;15.74;25.22;98460.69;115481;1199;103124;-79
2021/04/05 08:47:17;;;;;;;11.90;7.20;;;;;;;15.16;26.18;98457.46;115353;1196;104052;-79
2021/04/05 08:49:47;;;;;;;11.27;6.73;;;;;;;14.48;26.74;98452.20;115351;1198;102980;-79
2021/04/05 08:52:20;;;;;;;11.23;6.97;;;;;;;13.99;27.81;98452.41;115583;1199;103134;-79
2021/04/05 08:54:49;;;;;;;12.63;7.30;;;;;;;13.70;28.27;98433.63;115391;1197;103441;-79
2021/04/05 08:57:29;;;;;;;12.50;7.90;;;;;;;13.81;28.74;98443.30;115674;1196;103004;-78
2021/04/05 09:00:13;;;;;;;10.73;6.83;;;;;;;13.98;28.75;98428.94;115310;1196;103075;-79
2021/04/05 09:02:49;;;;;;;9.77;6.93;;;;;;;13.96;28.72;98418.58;115384;1196;101522;-79
2021/04/05 09:05:23;;;;;;;10.30;6.50;;;;;;;13.86;28.90;98391.41;115325;1198;103046;-79
2021/04/05 09:08:03;;;;;;;10.60;6.60;;;;;;;13.52;29.51;98393.06;115330;1197;103040;-79
2021/04/05 09:10:34;;;;;;;11.60;7.77;;;;;;;13.25;30.00;98386.27;115488;1199;103123;-79
2021/04/05 09:13:07;;;;;;;13.57;7.30;;;;;;;13.18;30.13;98402.54;115637;1198;103079;-78
2021/04/05 09:15:57;;;;;;;11.40;7.00;;;;;;;13.07;30.50;98384.11;115316;1198;103044;-78
2021/04/05 09:18:42;;;;;;;12.63;7.80;;;;;;;12.88;30.59;98387.20;115288;1199;103046;-78
2021/04/05 09:21:48;;;;;;;12.83;7.00;;;;;;;12.82;31.03;98403.34;115622;1199;103021;-79
2021/04/05 09:24:48;;;;;;;14.27;7.40;;;;;;;12.51;31.18;98389.78;115318;1199;103542;-78
2021/04/05 09:27:44;;;;;;;14.93;7.33;;;;;;;12.12;32.02;98431.73;115345;1199;103108;-78
2021/04/05 09:30:39;;;;;;;13.07;7.43;;;;;;;11.73;32.29;98391.63;115401;1199;104735;-78
2021/04/05 09:33:47;;;;;;;9.53;6.40;;;;;;;11.65;32.94;98376.44;115554;1196;103060;-78
2021/04/05 09:36:41;;;;;;;12.87;6.97;;;;;;;11.68;33.42;98368.43;115315;1198;103014;-79
2021/04/05 09:39:33;;;;;;;10.30;6.70;;;;;;;11.56;33.40;98389.28;115334;1198;102993;-78
2021/04/05 09:42:31;;;;;;;10.90;6.87;;;;;;;11.40;33.68;98361.56;115361;1197;103002;-78
2021/04/05 09:45:31;;;;;;;12.50;6.97;;;;;;;11.16;34.04;98360.56;115569;1198;103709;-78
2021/04/05 09:48:33;;;;;;;11.53;6.90;;;;;;;11.03;34.42;98359.66;115548;1197;103085;-78
2021/04/05 09:51:25;;;;;;;11.67;6.70;;;;;;;10.84;34.75;98355.61;115396;1197;103049;-79
2021/04/05 09:54:09;;;;;;;12.10;6.80;;;;;;;10.82;34.83;98357.48;115321;1196;103175;-78
2021/04/05 09:56:42;;;;;;;11.87;7.00;;;;;;;10.86;35.06;98347.69;115346;1199;102970;-78
2021/04/05 09:59:16;;;;;;;10.97;6.87;;;;;;;10.84;35.07;98332.15;115365;1198;102976;-78
2021/04/05 10:01:49;;;;;;;10.70;6.17;;;;;;;10.87;34.88;98321.52;115555;1196;103116;-78
2021/04/05 10:04:22;;;;;;;10.50;6.80;;;;;;;10.96;34.58;98316.66;115535;1196;103024;-78
2021/04/05 10:06:54;;;;;;;12.43;6.93;;;;;;;11.14;34.80;98310.25;115548;1196;102844;-78
2021/04/05 10:09:29;;;;;;;10.80;6.13;;;;;;;11.38;34.19;98316.46;115330;1196;103021;-78
2021/04/05 10:12:02;;;;;;;12.00;6.43;;;;;;;11.65;34.22;98325.99;115313;1199;103043;-78
2021/04/05 10:14:30;;;;;;;11.57;6.70;;;;;;;11.82;33.98;98315.28;115502;1199;103273;-78
2021/04/05 10:16:59;;;;;;;10.70;6.47;;;;;;;11.90;34.00;98310.39;115339;1199;103094;-78
2021/04/05 10:19:34;;;;;;;10.40;6.87;;;;;;;11.81;33.52;98305.77;115361;1196;103025;-78
2021/04/05 10:22:10;;;;;;;11.17;6.07;;;;;;;11.74;33.77;98313.17;115342;1196;103433;-77
2021/04/05 10:24:43;;;;;;;12.17;6.90;;;;;;;11.65;33.76;98300.72;115411;1197;103098;-79
2021/04/05 10:27:14;;;;;;;11.40;6.30;;;;;;;11.58;33.93;98312.52;115388;1199;103123;-78
2021/04/05 10:29:43;;;;;;;9.40;6.13;;;;;;;11.49;34.22;98287.88;115293;1199;102983;-77
2021/04/05 10:32:18;;;;;;;11.60;6.27;;;;;;;11.35;34.39;98298.40;115622;1196;103117;-78
2021/04/05 10:34:49;;;;;;;12.07;5.90;;;;;;;11.22;34.69;98270.59;115355;1199;102999;-77
2021/04/05 10:37:22;;;;;;;13.93;7.07;;;;;;;11.19;34.88;98271.64;115598;1196;103065;-78
2021/04/05 10:39:52;;;;;;;10.60;6.45;;;;;;;11.25;34.75;98267.78;115354;1197;103153;-78
2021/04/05 10:42:23;;;;;;;11.07;5.73;;;;;;;11.29;34.61;98264.86;115343;1196;103143;-78
2021/04/05 10:45:07;;;;;;;10.83;6.20;;;;;;;11.28;34.46;98250.14;115554;1199;103028;-78
2021/04/05 10:47:57;;;;;;;10.90;6.40;;;;;;;11.30;34.43;98257.86;115549;1199;101927;-78
2021/04/05 10:50:27;;;;;;;8.07;5.83;;;;;;;11.30;34.67;98245.65;115332;1198;103002;-78
2021/04/05 10:53:06;;;;;;;9.23;5.67;;;;;;;11.32;34.43;98249.02;115513;1196;103110;-79
2021/04/05 10:55:39;;;;;;;8.83;5.83;;;;;;;11.32;34.46;98245.58;115310;1200;103011;-78
2021/04/05 10:58:10;;;;;;;9.77;5.37;;;;;;;11.30;34.60;98250.03;115312;1196;103011;-78
2021/04/05 11:00:40;;;;;;;14.13;6.73;;;;;;;11.27;34.77;98240.64;115381;1197;103075;-78
2021/04/05 11:03:17;;;;;;;10.13;5.67;;;;;;;11.29;34.80;98228.32;115315;1199;103027;-78
2021/04/05 11:05:50;;;;;;;11.53;5.83;;;;;;;11.33;35.12;98210.71;115538;1200;102861;-78
2021/04/05 11:08:21;;;;;;;10.00;5.60;;;;;;;11.38;34.61;98219.05;115362;1196;103021;-78
2021/04/05 11:10:59;;;;;;;10.87;5.70;;;;;;;11.38;34.84;98198.17;115361;1196;103033;-78
2021/04/05 11:13:27;;;;;;;13.20;6.07;;;;;;;11.45;34.68;98195.03;115361;1199;103015;-78
2021/04/05 11:15:56;;;;;;;8.63;5.50;;;;;;;11.54;34.59;98187.53;115331;1200;103235;-77
2021/04/05 11:18:26;;;;;;;10.17;5.27;;;;;;;11.58;34.54;98205.48;115380;1199;102996;-78
2021/04/05 11:20:57;;;;;;;12.20;5.63;;;;;;;11.62;34.67;98174.77;115315;1199;103030;-78
2021/04/05 11:23:34;;;;;;;8.60;5.40;;;;;;;11.68;34.56;98172.58;115658;1196;103185;-78
2021/04/05 11:26:06;;;;;;;10.03;5.93;;;;;;;11.73;34.67;98167.03;115411;1196;100709;-78
2021/04/05 11:28:35;;;;;;;9.50;4.97;;;;;;;11.82;34.68;98160.34;115594;1200;103484;-78
2021/04/05 11:31:16;;;;;;;10.03;5.13;;;;;;;11.82;34.41;98176.02;115358;1200;103030;-78
2021/04/05 11:33:56;;;;;;;10.77;4.97;;;;;;;11.72;34.53;98181.03;115629;1196;103979;-78
2021/04/05 11:36:30;;;;;;;10.53;5.10;;;;;;;11.58;34.61;98163.70;115324;1197;103037;-78
2021/04/05 11:39:00;;;;;;;10.50;5.00;;;;;;;11.49;35.02;98159.97;115394;1196;103096;-78
2021/04/05 11:41:29;;;;;;;11.90;5.73;;;;;;;11.48;35.34;98158.27;115349;1196;103198;-77
2021/04/05 11:44:03;;;;;;;13.53;6.00;;;;;;;11.50;35.28;98161.64;115355;1199;103469;-78
2021/04/05 11:46:35;;;;;;;10.00;5.60;;;;;;;11.48;35.43;98163.48;115297;1199;103017;-77
2021/04/05 11:49:11;;;;;;;8.73;5.60;;;;;;;11.46;35.36;98165.38;115368;1200;102883;-78